sensor_id;sensor_type;location;lat;lon;timestamp;P1;durP1;ratioP1;P2;durP2;ratioP2
71562;SDS011;59391;52.504;13.438;2023-03-03T00:01:19;28.77;;;12.30;;
71562;SDS011;59391;52.504;13.438;2023-03-03T00:03:44;28.33;;;12.18;;
71562;SDS011;59391;52.504;13.438;2023-03-03T00:06:11;27.53;;;12.43;;
71562;SDS011;59391;52.504;13.438;2023-03-03T00:08:39;29.83;;;13.02;;
71562;SDS011;59391;52.504;13.438;2023-03-03T00:11:05;31.35;;;12.82;;
71562;SDS011;59391;52.504;13.438;2023-03-03T00:13:32;32.30;;;13.25;;
71562;SDS011;59391;52.504;13.438;2023-03-03T00:18:53;25.83;;;12.00;;
71562;SDS011;59391;52.504;13.438;2023-03-03T00:21:34;28.88;;;12.20;;
71562;SDS011;59391;52.504;13.438;2023-03-03T00:26:39;27.30;;;12.25;;
71562;SDS011;59391;52.504;13.438;2023-03-03T00:31:58;28.67;;;12.35;;
71562;SDS011;59391;52.504;13.438;2023-03-03T00:34:38;24.98;;;11.45;;
71562;SDS011;59391;52.504;13.438;2023-03-03T00:37:11;31.77;;;15.15;;
71562;SDS011;59391;52.504;13.438;2023-03-03T00:39:44;25.85;;;10.82;;
71562;SDS011;59391;52.504;13.438;2023-03-03T00:42:11;28.73;;;11.67;;
71562;SDS011;59391;52.504;13.438;2023-03-03T00:44:42;24.50;;;11.00;;
71562;SDS011;59391;52.504;13.438;2023-03-03T00:50:23;24.87;;;10.97;;
71562;SDS011;59391;52.504;13.438;2023-03-03T00:53:05;24.17;;;11.05;;
71562;SDS011;59391;52.504;13.438;2023-03-03T00:55:43;25.33;;;12.05;;
71562;SDS011;59391;52.504;13.438;2023-03-03T00:58:11;28.38;;;12.60;;
71562;SDS011;59391;52.504;13.438;2023-03-03T01:00:38;25.73;;;11.57;;
71562;SDS011;59391;52.504;13.438;2023-03-03T01:03:07;28.43;;;11.87;;
71562;SDS011;59391;52.504;13.438;2023-03-03T01:05:38;25.20;;;11.23;;
71562;SDS011;59391;52.504;13.438;2023-03-03T01:08:04;25.85;;;11.82;;
71562;SDS011;59391;52.504;13.438;2023-03-03T01:10:31;27.17;;;12.07;;
71562;SDS011;59391;52.504;13.438;2023-03-03T01:13:02;27.50;;;12.52;;
71562;SDS011;59391;52.504;13.438;2023-03-03T01:15:29;29.13;;;12.45;;
71562;SDS011;59391;52.504;13.438;2023-03-03T01:17:55;24.67;;;11.57;;
71562;SDS011;59391;52.504;13.438;2023-03-03T01:20:21;24.63;;;11.37;;
71562;SDS011;59391;52.504;13.438;2023-03-03T01:22:47;25.27;;;11.30;;
71562;SDS011;59391;52.504;13.438;2023-03-03T01:25:13;28.88;;;11.85;;
71562;SDS011;59391;52.504;13.438;2023-03-03T01:27:39;34.40;;;15.50;;
71562;SDS011;59391;52.504;13.438;2023-03-03T01:30:05;26.90;;;12.32;;
71562;SDS011;59391;52.504;13.438;2023-03-03T01:32:32;27.40;;;11.85;;
71562;SDS011;59391;52.504;13.438;2023-03-03T01:34:58;27.47;;;11.43;;
71562;SDS011;59391;52.504;13.438;2023-03-03T01:37:24;28.10;;;11.90;;
71562;SDS011;59391;52.504;13.438;2023-03-03T01:39:50;27.33;;;12.60;;
71562;SDS011;59391;52.504;13.438;2023-03-03T01:42:18;30.33;;;11.98;;
71562;SDS011;59391;52.504;13.438;2023-03-03T01:44:44;30.35;;;13.48;;
71562;SDS011;59391;52.504;13.438;2023-03-03T01:47:14;28.45;;;12.70;;
71562;SDS011;59391;52.504;13.438;2023-03-03T01:49:49;30.42;;;13.32;;
71562;SDS011;59391;52.504;13.438;2023-03-03T01:52:30;29.57;;;11.93;;
71562;SDS011;59391;52.504;13.438;2023-03-03T01:55:04;29.50;;;12.30;;
71562;SDS011;59391;52.504;13.438;2023-03-03T01:57:48;27.45;;;12.10;;
71562;SDS011;59391;52.504;13.438;2023-03-03T02:00:23;25.58;;;11.15;;
71562;SDS011;59391;52.504;13.438;2023-03-03T02:02:49;28.20;;;12.30;;
71562;SDS011;59391;52.504;13.438;2023-03-03T02:05:16;26.80;;;12.37;;
71562;SDS011;59391;52.504;13.438;2023-03-03T02:07:42;28.83;;;12.70;;
71562;SDS011;59391;52.504;13.438;2023-03-03T02:10:10;29.98;;;12.82;;
71562;SDS011;59391;52.504;13.438;2023-03-03T02:12:41;32.72;;;14.50;;
71562;SDS011;59391;52.504;13.438;2023-03-03T02:15:26;38.83;;;16.60;;
71562;SDS011;59391;52.504;13.438;2023-03-03T02:18:04;33.83;;;14.80;;
71562;SDS011;59391;52.504;13.438;2023-03-03T02:28:22;28.53;;;12.63;;
71562;SDS011;59391;52.504;13.438;2023-03-03T02:30:53;28.80;;;13.35;;
71562;SDS011;59391;52.504;13.438;2023-03-03T02:33:24;30.77;;;12.80;;
71562;SDS011;59391;52.504;13.438;2023-03-03T02:35:51;32.42;;;14.38;;
71562;SDS011;59391;52.504;13.438;2023-03-03T02:38:25;31.63;;;14.50;;
71562;SDS011;59391;52.504;13.438;2023-03-03T02:41:02;34.23;;;14.70;;
71562;SDS011;59391;52.504;13.438;2023-03-03T02:43:43;33.13;;;14.30;;
71562;SDS011;59391;52.504;13.438;2023-03-03T02:46:17;33.67;;;15.55;;
71562;SDS011;59391;52.504;13.438;2023-03-03T02:48:43;35.80;;;16.08;;
71562;SDS011;59391;52.504;13.438;2023-03-03T02:51:09;34.33;;;14.83;;
71562;SDS011;59391;52.504;13.438;2023-03-03T02:53:34;34.10;;;14.77;;
71562;SDS011;59391;52.504;13.438;2023-03-03T02:56:00;29.55;;;13.90;;
71562;SDS011;59391;52.504;13.438;2023-03-03T02:58:28;31.70;;;14.35;;
71562;SDS011;59391;52.504;13.438;2023-03-03T03:00:54;33.85;;;15.63;;
71562;SDS011;59391;52.504;13.438;2023-03-03T03:03:20;32.07;;;13.87;;
71562;SDS011;59391;52.504;13.438;2023-03-03T03:05:46;30.98;;;14.27;;
71562;SDS011;59391;52.504;13.438;2023-03-03T03:08:12;29.13;;;14.10;;
71562;SDS011;59391;52.504;13.438;2023-03-03T03:10:38;33.87;;;14.27;;
71562;SDS011;59391;52.504;13.438;2023-03-03T03:13:03;30.90;;;13.57;;
71562;SDS011;59391;52.504;13.438;2023-03-03T03:15:29;29.63;;;13.63;;
71562;SDS011;59391;52.504;13.438;2023-03-03T03:17:55;35.63;;;14.60;;
71562;SDS011;59391;52.504;13.438;2023-03-03T03:20:20;32.55;;;14.73;;
71562;SDS011;59391;52.504;13.438;2023-03-03T03:22:46;29.23;;;13.43;;
71562;SDS011;59391;52.504;13.438;2023-03-03T03:25:12;33.78;;;15.00;;
71562;SDS011;59391;52.504;13.438;2023-03-03T03:27:37;34.70;;;15.20;;
71562;SDS011;59391;52.504;13.438;2023-03-03T03:30:03;31.27;;;14.87;;
71562;SDS011;59391;52.504;13.438;2023-03-03T03:32:29;31.50;;;14.23;;
71562;SDS011;59391;52.504;13.438;2023-03-03T03:34:55;32.85;;;14.55;;
71562;SDS011;59391;52.504;13.438;2023-03-03T03:37:20;29.77;;;13.20;;
71562;SDS011;59391;52.504;13.438;2023-03-03T03:39:46;30.67;;;13.30;;
71562;SDS011;59391;52.504;13.438;2023-03-03T03:42:12;29.77;;;13.02;;
71562;SDS011;59391;52.504;13.438;2023-03-03T03:44:37;30.23;;;13.33;;
71562;SDS011;59391;52.504;13.438;2023-03-03T03:47:03;30.17;;;13.88;;
71562;SDS011;59391;52.504;13.438;2023-03-03T03:49:28;32.00;;;14.53;;
71562;SDS011;59391;52.504;13.438;2023-03-03T03:51:54;32.07;;;13.83;;
71562;SDS011;59391;52.504;13.438;2023-03-03T03:54:20;27.42;;;13.00;;
71562;SDS011;59391;52.504;13.438;2023-03-03T03:56:45;29.97;;;13.13;;
71562;SDS011;59391;52.504;13.438;2023-03-03T03:59:11;30.42;;;12.77;;
71562;SDS011;59391;52.504;13.438;2023-03-03T04:01:37;28.67;;;11.60;;
71562;SDS011;59391;52.504;13.438;2023-03-03T04:04:02;30.47;;;13.20;;
71562;SDS011;59391;52.504;13.438;2023-03-03T04:06:28;31.15;;;13.23;;
71562;SDS011;59391;52.504;13.438;2023-03-03T04:08:55;31.90;;;14.18;;
71562;SDS011;59391;52.504;13.438;2023-03-03T04:11:21;32.37;;;13.70;;
71562;SDS011;59391;52.504;13.438;2023-03-03T04:13:46;30.00;;;12.90;;
71562;SDS011;59391;52.504;13.438;2023-03-03T04:16:12;29.37;;;12.73;;
71562;SDS011;59391;52.504;13.438;2023-03-03T04:18:38;31.83;;;13.73;;
71562;SDS011;59391;52.504;13.438;2023-03-03T04:21:03;35.60;;;14.03;;
71562;SDS011;59391;52.504;13.438;2023-03-03T04:23:29;35.53;;;14.38;;
71562;SDS011;59391;52.504;13.438;2023-03-03T04:25:55;33.53;;;14.03;;
71562;SDS011;59391;52.504;13.438;2023-03-03T04:28:21;34.42;;;15.02;;
71562;SDS011;59391;52.504;13.438;2023-03-03T04:30:49;31.57;;;13.37;;
71562;SDS011;59391;52.504;13.438;2023-03-03T04:33:14;31.95;;;13.95;;
71562;SDS011;59391;52.504;13.438;2023-03-03T04:35:40;44.83;;;15.93;;
71562;SDS011;59391;52.504;13.438;2023-03-03T04:38:05;39.28;;;15.88;;
71562;SDS011;59391;52.504;13.438;2023-03-03T04:40:31;31.90;;;13.75;;
71562;SDS011;59391;52.504;13.438;2023-03-03T04:42:57;36.30;;;14.43;;
71562;SDS011;59391;52.504;13.438;2023-03-03T04:45:22;32.17;;;13.50;;
71562;SDS011;59391;52.504;13.438;2023-03-03T04:47:48;31.37;;;14.10;;
71562;SDS011;59391;52.504;13.438;2023-03-03T04:50:13;30.17;;;12.75;;
71562;SDS011;59391;52.504;13.438;2023-03-03T04:52:39;31.73;;;13.82;;
71562;SDS011;59391;52.504;13.438;2023-03-03T04:55:05;32.40;;;12.80;;
71562;SDS011;59391;52.504;13.438;2023-03-03T04:57:31;33.42;;;13.75;;
71562;SDS011;59391;52.504;13.438;2023-03-03T04:59:57;30.27;;;13.13;;
71562;SDS011;59391;52.504;13.438;2023-03-03T05:02:22;33.25;;;14.13;;
71562;SDS011;59391;52.504;13.438;2023-03-03T05:04:48;30.80;;;12.33;;
71562;SDS011;59391;52.504;13.438;2023-03-03T05:07:14;30.45;;;12.68;;
71562;SDS011;59391;52.504;13.438;2023-03-03T05:09:39;30.85;;;13.77;;
71562;SDS011;59391;52.504;13.438;2023-03-03T05:12:05;31.67;;;13.07;;
71562;SDS011;59391;52.504;13.438;2023-03-03T05:14:31;34.63;;;13.63;;
71562;SDS011;59391;52.504;13.438;2023-03-03T05:16:56;36.43;;;14.30;;
71562;SDS011;59391;52.504;13.438;2023-03-03T05:19:22;33.13;;;13.23;;
71562;SDS011;59391;52.504;13.438;2023-03-03T05:21:48;34.63;;;13.50;;
71562;SDS011;59391;52.504;13.438;2023-03-03T05:24:13;37.38;;;15.00;;
71562;SDS011;59391;52.504;13.438;2023-03-03T05:26:39;38.07;;;14.70;;
71562;SDS011;59391;52.504;13.438;2023-03-03T05:29:06;35.30;;;14.65;;
71562;SDS011;59391;52.504;13.438;2023-03-03T05:31:33;43.63;;;16.88;;
71562;SDS011;59391;52.504;13.438;2023-03-03T05:33:59;41.80;;;16.20;;
71562;SDS011;59391;52.504;13.438;2023-03-03T05:36:25;41.78;;;16.42;;
71562;SDS011;59391;52.504;13.438;2023-03-03T05:38:50;41.10;;;16.80;;
71562;SDS011;59391;52.504;13.438;2023-03-03T05:41:16;41.83;;;15.88;;
71562;SDS011;59391;52.504;13.438;2023-03-03T05:43:42;43.08;;;16.48;;
71562;SDS011;59391;52.504;13.438;2023-03-03T05:46:08;43.37;;;16.77;;
71562;SDS011;59391;52.504;13.438;2023-03-03T05:48:34;41.97;;;15.45;;
71562;SDS011;59391;52.504;13.438;2023-03-03T05:51:00;43.58;;;16.00;;
71562;SDS011;59391;52.504;13.438;2023-03-03T05:53:26;40.90;;;16.43;;
71562;SDS011;59391;52.504;13.438;2023-03-03T05:55:52;44.40;;;17.85;;
71562;SDS011;59391;52.504;13.438;2023-03-03T05:58:18;45.85;;;17.35;;
71562;SDS011;59391;52.504;13.438;2023-03-03T06:00:44;42.97;;;17.23;;
71562;SDS011;59391;52.504;13.438;2023-03-03T06:03:10;45.53;;;18.60;;
71562;SDS011;59391;52.504;13.438;2023-03-03T06:05:36;44.07;;;17.60;;
71562;SDS011;59391;52.504;13.438;2023-03-03T06:08:01;37.97;;;15.63;;
71562;SDS011;59391;52.504;13.438;2023-03-03T06:10:27;46.17;;;16.83;;
71562;SDS011;59391;52.504;13.438;2023-03-03T06:12:53;43.33;;;17.02;;
71562;SDS011;59391;52.504;13.438;2023-03-03T06:15:19;36.00;;;14.90;;
71562;SDS011;59391;52.504;13.438;2023-03-03T06:17:47;41.83;;;16.08;;
71562;SDS011;59391;52.504;13.438;2023-03-03T06:20:12;46.90;;;16.77;;
71562;SDS011;59391;52.504;13.438;2023-03-03T06:22:38;42.93;;;16.03;;
71562;SDS011;59391;52.504;13.438;2023-03-03T06:25:04;43.17;;;16.73;;
71562;SDS011;59391;52.504;13.438;2023-03-03T06:27:30;44.10;;;16.35;;
71562;SDS011;59391;52.504;13.438;2023-03-03T06:29:55;46.22;;;16.88;;
71562;SDS011;59391;52.504;13.438;2023-03-03T06:32:21;39.07;;;15.77;;
71562;SDS011;59391;52.504;13.438;2023-03-03T06:34:46;35.60;;;14.33;;
71562;SDS011;59391;52.504;13.438;2023-03-03T06:37:12;35.97;;;14.45;;
71562;SDS011;59391;52.504;13.438;2023-03-03T06:39:38;37.60;;;13.90;;
71562;SDS011;59391;52.504;13.438;2023-03-03T06:42:03;43.22;;;14.30;;
71562;SDS011;59391;52.504;13.438;2023-03-03T06:44:29;37.87;;;15.37;;
71562;SDS011;59391;52.504;13.438;2023-03-03T06:46:55;38.60;;;14.50;;
71562;SDS011;59391;52.504;13.438;2023-03-03T06:49:21;36.65;;;14.43;;
71562;SDS011;59391;52.504;13.438;2023-03-03T06:51:47;42.08;;;15.75;;
71562;SDS011;59391;52.504;13.438;2023-03-03T06:54:14;38.70;;;14.97;;
71562;SDS011;59391;52.504;13.438;2023-03-03T06:56:48;44.40;;;15.77;;
71562;SDS011;59391;52.504;13.438;2023-03-03T06:59:18;45.47;;;17.48;;
71562;SDS011;59391;52.504;13.438;2023-03-03T07:01:46;42.27;;;16.50;;
71562;SDS011;59391;52.504;13.438;2023-03-03T07:06:55;36.22;;;14.60;;
71562;SDS011;59391;52.504;13.438;2023-03-03T07:09:25;40.60;;;15.43;;
71562;SDS011;59391;52.504;13.438;2023-03-03T07:12:12;40.75;;;14.98;;
71562;SDS011;59391;52.504;13.438;2023-03-03T07:14:44;45.17;;;16.13;;
71562;SDS011;59391;52.504;13.438;2023-03-03T07:17:16;46.63;;;17.13;;
71562;SDS011;59391;52.504;13.438;2023-03-03T07:19:45;43.35;;;16.25;;
71562;SDS011;59391;52.504;13.438;2023-03-03T07:22:19;41.75;;;15.95;;
71562;SDS011;59391;52.504;13.438;2023-03-03T07:24:49;42.75;;;15.35;;
71562;SDS011;59391;52.504;13.438;2023-03-03T07:29:53;38.58;;;14.32;;
71562;SDS011;59391;52.504;13.438;2023-03-03T07:32:46;43.45;;;16.15;;
71562;SDS011;59391;52.504;13.438;2023-03-03T07:35:26;46.92;;;17.95;;
71562;SDS011;59391;52.504;13.438;2023-03-03T07:38:02;44.33;;;16.38;;
71562;SDS011;59391;52.504;13.438;2023-03-03T07:40:55;44.53;;;15.90;;
71562;SDS011;59391;52.504;13.438;2023-03-03T07:43:26;45.05;;;16.27;;
71562;SDS011;59391;52.504;13.438;2023-03-03T07:51:13;46.88;;;17.25;;
71562;SDS011;59391;52.504;13.438;2023-03-03T07:53:49;43.93;;;16.20;;
71562;SDS011;59391;52.504;13.438;2023-03-03T07:56:29;46.90;;;18.08;;
71562;SDS011;59391;52.504;13.438;2023-03-03T07:58:59;48.65;;;18.55;;
71562;SDS011;59391;52.504;13.438;2023-03-03T08:01:45;46.03;;;17.15;;
71562;SDS011;59391;52.504;13.438;2023-03-03T08:04:16;45.78;;;17.58;;
71562;SDS011;59391;52.504;13.438;2023-03-03T08:09:28;52.22;;;17.63;;
71562;SDS011;59391;52.504;13.438;2023-03-03T08:14:54;40.67;;;15.85;;
71562;SDS011;59391;52.504;13.438;2023-03-03T08:17:29;47.90;;;16.15;;
71562;SDS011;59391;52.504;13.438;2023-03-03T08:20:06;44.13;;;16.83;;
71562;SDS011;59391;52.504;13.438;2023-03-03T08:23:05;46.53;;;17.75;;
71562;SDS011;59391;52.504;13.438;2023-03-03T08:25:30;48.28;;;17.92;;
71562;SDS011;59391;52.504;13.438;2023-03-03T08:27:56;49.13;;;17.60;;
71562;SDS011;59391;52.504;13.438;2023-03-03T08:30:22;56.63;;;19.83;;
71562;SDS011;59391;52.504;13.438;2023-03-03T08:32:47;50.13;;;18.10;;
71562;SDS011;59391;52.504;13.438;2023-03-03T08:35:13;51.90;;;18.27;;
71562;SDS011;59391;52.504;13.438;2023-03-03T08:37:38;53.55;;;19.08;;
71562;SDS011;59391;52.504;13.438;2023-03-03T08:40:04;45.53;;;15.97;;
71562;SDS011;59391;52.504;13.438;2023-03-03T08:42:31;43.15;;;16.42;;
71562;SDS011;59391;52.504;13.438;2023-03-03T08:44:56;41.33;;;15.40;;
71562;SDS011;59391;52.504;13.438;2023-03-03T08:47:22;39.00;;;14.30;;
71562;SDS011;59391;52.504;13.438;2023-03-03T08:49:48;40.63;;;15.47;;
71562;SDS011;59391;52.504;13.438;2023-03-03T08:52:13;36.43;;;14.00;;
71562;SDS011;59391;52.504;13.438;2023-03-03T08:54:39;33.65;;;13.00;;
71562;SDS011;59391;52.504;13.438;2023-03-03T08:57:04;40.87;;;15.23;;
71562;SDS011;59391;52.504;13.438;2023-03-03T08:59:30;40.50;;;15.70;;
71562;SDS011;59391;52.504;13.438;2023-03-03T09:02:01;43.72;;;15.38;;
71562;SDS011;59391;52.504;13.438;2023-03-03T09:04:27;37.92;;;15.57;;
71562;SDS011;59391;52.504;13.438;2023-03-03T09:06:52;38.43;;;16.00;;
71562;SDS011;59391;52.504;13.438;2023-03-03T09:09:18;35.57;;;15.33;;
71562;SDS011;59391;52.504;13.438;2023-03-03T09:11:44;40.10;;;16.15;;
71562;SDS011;59391;52.504;13.438;2023-03-03T09:14:11;41.55;;;16.85;;
71562;SDS011;59391;52.504;13.438;2023-03-03T09:16:44;41.43;;;15.97;;
71562;SDS011;59391;52.504;13.438;2023-03-03T09:21:54;47.75;;;18.77;;
71562;SDS011;59391;52.504;13.438;2023-03-03T09:24:26;50.10;;;18.10;;
71562;SDS011;59391;52.504;13.438;2023-03-03T09:26:55;46.72;;;17.80;;
71562;SDS011;59391;52.504;13.438;2023-03-03T09:32:07;46.92;;;18.02;;
71562;SDS011;59391;52.504;13.438;2023-03-03T09:35:48;41.00;;;16.50;;
71562;SDS011;59391;52.504;13.438;2023-03-03T09:37:54;34.97;;;15.48;;
71562;SDS011;59391;52.504;13.438;2023-03-03T09:40:43;48.60;;;18.47;;
71562;SDS011;59391;52.504;13.438;2023-03-03T09:43:44;44.13;;;17.45;;
71562;SDS011;59391;52.504;13.438;2023-03-03T09:46:57;43.88;;;16.33;;
71562;SDS011;59391;52.504;13.438;2023-03-03T09:49:56;34.47;;;14.55;;
71562;SDS011;59391;52.504;13.438;2023-03-03T09:55:49;39.40;;;16.77;;
71562;SDS011;59391;52.504;13.438;2023-03-03T09:58:32;40.38;;;18.60;;
71562;SDS011;59391;52.504;13.438;2023-03-03T10:01:39;40.38;;;17.20;;
71562;SDS011;59391;52.504;13.438;2023-03-03T10:07:32;43.43;;;17.50;;
71562;SDS011;59391;52.504;13.438;2023-03-03T10:10:27;45.92;;;18.63;;
71562;SDS011;59391;52.504;13.438;2023-03-03T10:19:06;40.38;;;17.42;;
71562;SDS011;59391;52.504;13.438;2023-03-03T10:27:44;35.45;;;15.25;;
71562;SDS011;59391;52.504;13.438;2023-03-03T10:34:05;35.88;;;15.88;;
71562;SDS011;59391;52.504;13.438;2023-03-03T10:37:20;41.50;;;15.90;;
71562;SDS011;59391;52.504;13.438;2023-03-03T10:40:15;41.20;;;17.50;;
71562;SDS011;59391;52.504;13.438;2023-03-03T10:43:20;41.83;;;19.38;;
71562;SDS011;59391;52.504;13.438;2023-03-03T10:46:01;37.30;;;18.17;;
71562;SDS011;59391;52.504;13.438;2023-03-03T10:48:54;38.33;;;18.23;;
71562;SDS011;59391;52.504;13.438;2023-03-03T10:54:37;30.33;;;13.63;;
71562;SDS011;59391;52.504;13.438;2023-03-03T11:00:58;30.50;;;12.90;;
71562;SDS011;59391;52.504;13.438;2023-03-03T11:03:53;32.17;;;14.35;;
71562;SDS011;59391;52.504;13.438;2023-03-03T11:12:40;44.17;;;18.52;;
71562;SDS011;59391;52.504;13.438;2023-03-03T11:15:50;39.97;;;17.52;;
71562;SDS011;59391;52.504;13.438;2023-03-03T11:21:40;35.80;;;15.90;;
71562;SDS011;59391;52.504;13.438;2023-03-03T11:25:00;35.92;;;15.35;;
71562;SDS011;59391;52.504;13.438;2023-03-03T11:28:11;34.92;;;15.18;;
71562;SDS011;59391;52.504;13.438;2023-03-03T11:36:53;36.30;;;16.17;;
71562;SDS011;59391;52.504;13.438;2023-03-03T11:39:40;42.28;;;18.38;;
71562;SDS011;59391;52.504;13.438;2023-03-03T11:42:16;47.00;;;19.30;;
71562;SDS011;59391;52.504;13.438;2023-03-03T11:44:59;45.00;;;18.77;;
71562;SDS011;59391;52.504;13.438;2023-03-03T11:47:39;42.17;;;19.77;;
71562;SDS011;59391;52.504;13.438;2023-03-03T11:50:42;42.03;;;18.47;;
71562;SDS011;59391;52.504;13.438;2023-03-03T11:56:16;48.40;;;20.98;;
71562;SDS011;59391;52.504;13.438;2023-03-03T12:02:12;44.88;;;20.35;;
71562;SDS011;59391;52.504;13.438;2023-03-03T12:04:43;47.83;;;20.87;;
71562;SDS011;59391;52.504;13.438;2023-03-03T12:07:51;46.97;;;19.95;;
71562;SDS011;59391;52.504;13.438;2023-03-03T12:13:19;49.63;;;19.45;;
71562;SDS011;59391;52.504;13.438;2023-03-03T12:24:50;48.20;;;20.10;;
71562;SDS011;59391;52.504;13.438;2023-03-03T12:27:40;40.88;;;18.08;;
71562;SDS011;59391;52.504;13.438;2023-03-03T12:36:03;30.13;;;14.15;;
71562;SDS011;59391;52.504;13.438;2023-03-03T12:39:06;31.05;;;13.27;;
71562;SDS011;59391;52.504;13.438;2023-03-03T12:41:58;32.13;;;13.82;;
71562;SDS011;59391;52.504;13.438;2023-03-03T12:44:38;29.95;;;13.80;;
71562;SDS011;59391;52.504;13.438;2023-03-03T12:47:22;27.43;;;12.43;;
71562;SDS011;59391;52.504;13.438;2023-03-03T12:55:52;29.85;;;12.55;;
71562;SDS011;59391;52.504;13.438;2023-03-03T12:58:35;36.03;;;13.70;;
71562;SDS011;59391;52.504;13.438;2023-03-03T13:01:39;40.53;;;16.77;;
71562;SDS011;59391;52.504;13.438;2023-03-03T13:04:44;36.28;;;15.75;;
71562;SDS011;59391;52.504;13.438;2023-03-03T13:07:26;33.25;;;13.95;;
71562;SDS011;59391;52.504;13.438;2023-03-03T13:12:56;37.92;;;16.83;;
71562;SDS011;59391;52.504;13.438;2023-03-03T13:15:40;35.43;;;15.87;;
71562;SDS011;59391;52.504;13.438;2023-03-03T13:18:24;32.88;;;15.45;;
71562;SDS011;59391;52.504;13.438;2023-03-03T13:24:10;29.45;;;13.50;;
71562;SDS011;59391;52.504;13.438;2023-03-03T13:27:03;46.67;;;19.17;;
71562;SDS011;59391;52.504;13.438;2023-03-03T13:35:06;47.08;;;19.88;;
71562;SDS011;59391;52.504;13.438;2023-03-03T13:37:53;47.15;;;20.20;;
71562;SDS011;59391;52.504;13.438;2023-03-03T13:40:23;50.53;;;21.40;;
71562;SDS011;59391;52.504;13.438;2023-03-03T13:43:18;46.27;;;20.67;;
71562;SDS011;59391;52.504;13.438;2023-03-03T13:46:24;42.35;;;18.73;;
71562;SDS011;59391;52.504;13.438;2023-03-03T13:49:10;44.40;;;20.08;;
71562;SDS011;59391;52.504;13.438;2023-03-03T13:52:30;46.17;;;19.48;;
71562;SDS011;59391;52.504;13.438;2023-03-03T14:06:24;35.83;;;15.70;;
71562;SDS011;59391;52.504;13.438;2023-03-03T14:09:07;43.38;;;16.80;;
71562;SDS011;59391;52.504;13.438;2023-03-03T14:12:17;53.80;;;22.90;;
71562;SDS011;59391;52.504;13.438;2023-03-03T14:14:59;45.85;;;21.02;;
71562;SDS011;59391;52.504;13.438;2023-03-03T14:20:46;44.70;;;19.30;;
71562;SDS011;59391;52.504;13.438;2023-03-03T14:23:20;41.38;;;17.42;;
71562;SDS011;59391;52.504;13.438;2023-03-03T14:25:58;44.70;;;19.43;;
71562;SDS011;59391;52.504;13.438;2023-03-03T14:28:42;30.90;;;14.43;;
71562;SDS011;59391;52.504;13.438;2023-03-03T14:31:23;29.90;;;13.20;;
71562;SDS011;59391;52.504;13.438;2023-03-03T14:34:13;29.27;;;14.18;;
71562;SDS011;59391;52.504;13.438;2023-03-03T14:37:23;29.65;;;14.43;;
71562;SDS011;59391;52.504;13.438;2023-03-03T14:45:22;32.72;;;14.55;;
71562;SDS011;59391;52.504;13.438;2023-03-03T14:48:44;40.67;;;16.60;;
71562;SDS011;59391;52.504;13.438;2023-03-03T14:50:56;38.08;;;16.55;;
71562;SDS011;59391;52.504;13.438;2023-03-03T14:53:48;35.60;;;14.77;;
71562;SDS011;59391;52.504;13.438;2023-03-03T14:56:28;34.40;;;15.85;;
71562;SDS011;59391;52.504;13.438;2023-03-03T15:01:45;37.85;;;17.65;;
71562;SDS011;59391;52.504;13.438;2023-03-03T15:06:44;33.83;;;15.53;;
71562;SDS011;59391;52.504;13.438;2023-03-03T15:17:36;29.23;;;13.55;;
71562;SDS011;59391;52.504;13.438;2023-03-03T15:20:36;26.70;;;12.30;;
71562;SDS011;59391;52.504;13.438;2023-03-03T15:23:39;25.73;;;11.65;;
71562;SDS011;59391;52.504;13.438;2023-03-03T15:26:18;22.83;;;11.48;;
71562;SDS011;59391;52.504;13.438;2023-03-03T15:29:21;27.70;;;12.45;;
71562;SDS011;59391;52.504;13.438;2023-03-03T15:32:07;22.85;;;11.32;;
71562;SDS011;59391;52.504;13.438;2023-03-03T15:34:56;27.13;;;11.63;;
71562;SDS011;59391;52.504;13.438;2023-03-03T15:40:48;28.77;;;13.05;;
71562;SDS011;59391;52.504;13.438;2023-03-03T15:43:39;26.23;;;13.15;;
71562;SDS011;59391;52.504;13.438;2023-03-03T15:46:44;25.90;;;12.00;;
71562;SDS011;59391;52.504;13.438;2023-03-03T15:49:52;25.30;;;12.17;;
71562;SDS011;59391;52.504;13.438;2023-03-03T15:55:20;23.38;;;11.95;;
71562;SDS011;59391;52.504;13.438;2023-03-03T16:04:23;27.00;;;11.87;;
71562;SDS011;59391;52.504;13.438;2023-03-03T16:07:33;23.73;;;11.00;;
71562;SDS011;59391;52.504;13.438;2023-03-03T16:10:19;28.80;;;13.98;;
71562;SDS011;59391;52.504;13.438;2023-03-03T16:16:24;27.63;;;13.32;;
71562;SDS011;59391;52.504;13.438;2023-03-03T16:25:19;27.85;;;13.15;;
71562;SDS011;59391;52.504;13.438;2023-03-03T16:31:39;26.20;;;12.52;;
71562;SDS011;59391;52.504;13.438;2023-03-03T16:37:53;28.02;;;12.68;;
71562;SDS011;59391;52.504;13.438;2023-03-03T16:40:44;26.88;;;13.80;;
71562;SDS011;59391;52.504;13.438;2023-03-03T16:49:07;27.90;;;13.73;;
71562;SDS011;59391;52.504;13.438;2023-03-03T16:58:21;27.83;;;12.85;;
71562;SDS011;59391;52.504;13.438;2023-03-03T17:01:28;27.10;;;12.60;;
71562;SDS011;59391;52.504;13.438;2023-03-03T17:05:05;27.37;;;13.47;;
71562;SDS011;59391;52.504;13.438;2023-03-03T17:07:37;27.92;;;12.57;;
71562;SDS011;59391;52.504;13.438;2023-03-03T17:10:36;31.02;;;14.10;;
71562;SDS011;59391;52.504;13.438;2023-03-03T17:13:19;36.40;;;15.70;;
71562;SDS011;59391;52.504;13.438;2023-03-03T17:16:34;29.38;;;14.18;;
71562;SDS011;59391;52.504;13.438;2023-03-03T17:19:24;30.00;;;15.07;;
71562;SDS011;59391;52.504;13.438;2023-03-03T17:22:19;27.35;;;13.57;;
71562;SDS011;59391;52.504;13.438;2023-03-03T17:24:58;31.55;;;15.93;;
71562;SDS011;59391;52.504;13.438;2023-03-03T17:27:43;31.88;;;15.55;;
71562;SDS011;59391;52.504;13.438;2023-03-03T17:30:43;42.92;;;19.73;;
71562;SDS011;59391;52.504;13.438;2023-03-03T17:33:30;30.60;;;13.53;;
71562;SDS011;59391;52.504;13.438;2023-03-03T17:36:38;33.33;;;14.18;;
71562;SDS011;59391;52.504;13.438;2023-03-03T17:42:24;29.25;;;13.40;;
71562;SDS011;59391;52.504;13.438;2023-03-03T17:45:11;32.53;;;15.20;;
71562;SDS011;59391;52.504;13.438;2023-03-03T17:56:33;31.58;;;14.98;;
71562;SDS011;59391;52.504;13.438;2023-03-03T18:02:11;37.87;;;17.13;;
71562;SDS011;59391;52.504;13.438;2023-03-03T18:10:47;28.92;;;14.05;;
71562;SDS011;59391;52.504;13.438;2023-03-03T18:13:46;34.40;;;16.55;;
71562;SDS011;59391;52.504;13.438;2023-03-03T18:22:45;33.45;;;13.88;;
71562;SDS011;59391;52.504;13.438;2023-03-03T18:25:19;31.40;;;14.10;;
71562;SDS011;59391;52.504;13.438;2023-03-03T18:31:24;33.77;;;15.20;;
71562;SDS011;59391;52.504;13.438;2023-03-03T18:34:53;30.30;;;14.85;;
71562;SDS011;59391;52.504;13.438;2023-03-03T18:46:02;31.63;;;14.47;;
71562;SDS011;59391;52.504;13.438;2023-03-03T18:48:44;30.20;;;14.90;;
71562;SDS011;59391;52.504;13.438;2023-03-03T18:51:45;36.95;;;16.08;;
71562;SDS011;59391;52.504;13.438;2023-03-03T18:56:44;31.65;;;14.45;;
71562;SDS011;59391;52.504;13.438;2023-03-03T18:59:53;36.85;;;16.60;;
71562;SDS011;59391;52.504;13.438;2023-03-03T19:02:37;28.20;;;13.60;;